Search for airport 
image banner adimage banner adimage banner ad
image banner ad

KWLW - Willows-Glenn County

Located in Willows, United States

ICAO - WLW, IATA - WLW

Data provided by Airmate  

General information

Coordinates: N39°30'57" W122°13'2"
Elevation is 141 feet MSL.
Magnetic variation is 14° East
View others Airports in California

Operational data

Special qualification required
Current time UTC:
Current local time:
Weather at : KCIC - Chico Muni ( 44 km )
METAR: KCIC 292147Z 19007KT 10SM SCT150 BKN180 38/13 A2983 RMK FUHZ ALQDS
View NOTAMs / SUP AIP / TFR affecting this airport [VIEW]
Communications frequencies: [VIEW]

Runways:

RWY identifierQFULength (ft)Width (ft)SurfaceLDA (ft)
13145°378860ASPH
31325°378860ASPH
16178°4125100ASPH
34358°4125100ASPH

Airport contact information

Address: Willows United States

Satellite view of KWLW